createdAt,value
2018-04-16T00:00:28.663Z,5.53
2018-04-16T00:02:55.623Z,5.23
2018-04-16T00:05:21.990Z,5.67
2018-04-16T00:07:48.255Z,5.60
2018-04-16T00:10:14.559Z,5.63
2018-04-16T00:12:40.898Z,5.47
2018-04-16T00:15:07.148Z,6.13
2018-04-16T00:17:33.605Z,6.00
2018-04-16T00:19:59.827Z,6.53
2018-04-16T00:22:26.061Z,6.10
2018-04-16T00:24:52.565Z,5.93
2018-04-16T00:27:18.797Z,5.83
2018-04-16T00:29:46.039Z,5.90
2018-04-16T00:32:18.551Z,6.10
2018-04-16T00:34:50.814Z,5.57
2018-04-16T00:37:23.075Z,5.70
2018-04-16T00:42:53.640Z,6.13
2018-04-16T00:45:26.182Z,5.97
2018-04-16T00:47:58.507Z,5.73
2018-04-16T00:50:30.918Z,6.43
2018-04-16T00:53:03.461Z,6.13
2018-04-16T00:55:35.891Z,6.70
2018-04-16T00:58:08.247Z,6.03
2018-04-16T01:00:40.706Z,6.27
2018-04-16T01:03:13.792Z,6.87
2018-04-16T01:05:46.378Z,6.90
2018-04-16T01:08:18.728Z,6.53
2018-04-16T01:13:50.159Z,6.97
2018-04-16T01:16:23.359Z,7.33
2018-04-16T01:18:56.479Z,7.37
2018-04-16T01:21:28.830Z,7.53
2018-04-16T01:24:01.236Z,8.63
2018-04-16T01:26:33.653Z,8.90
2018-04-16T01:29:06.168Z,8.07
2018-04-16T01:31:38.577Z,8.37
2018-04-16T01:34:10.848Z,9.20
2018-04-16T01:36:43.495Z,12.70
2018-04-16T01:39:16.921Z,9.73
2018-04-16T01:41:50.100Z,9.20
2018-04-16T01:44:23.160Z,9.27
2018-04-16T01:46:55.542Z,9.70
2018-04-16T01:49:27.937Z,10.03
2018-04-16T01:52:00.238Z,9.57
2018-04-16T01:54:33.330Z,8.60
2018-04-16T01:57:05.578Z,9.83
2018-04-16T01:59:37.994Z,9.67
2018-04-16T02:02:10.413Z,9.97
2018-04-16T02:04:43.499Z,11.23
2018-04-16T02:07:16.040Z,10.17
2018-04-16T02:09:48.517Z,9.10
2018-04-16T02:12:20.840Z,10.53
2018-04-16T02:14:53.152Z,9.80
2018-04-16T02:17:26.312Z,9.70
2018-04-16T02:19:58.699Z,11.47
2018-04-16T02:22:31.024Z,10.47
2018-04-16T02:25:03.365Z,9.73
2018-04-16T02:27:35.654Z,9.87
2018-04-16T02:30:07.911Z,9.90
2018-04-16T02:32:40.265Z,9.93
2018-04-16T02:35:12.511Z,9.80
2018-04-16T02:37:44.852Z,10.20
2018-04-16T02:40:17.154Z,9.97
2018-04-16T02:42:49.518Z,10.73
2018-04-16T02:45:22.507Z,10.40
2018-04-16T02:47:55.678Z,10.53
2018-04-16T02:50:28.798Z,9.63
2018-04-16T02:53:01.221Z,10.07
2018-04-16T02:55:33.562Z,10.37
2018-04-16T02:58:06.185Z,9.70
2018-04-16T03:00:39.349Z,10.60
2018-04-16T03:03:11.740Z,10.87
2018-04-16T03:05:44.019Z,10.20
2018-04-16T03:08:16.367Z,10.57
2018-04-16T03:10:55.583Z,11.07
2018-04-16T03:13:28.670Z,11.10
2018-04-16T03:16:01.927Z,10.83
2018-04-16T03:18:34.212Z,11.27
2018-04-16T03:21:06.706Z,10.67
2018-04-16T03:23:38.894Z,11.10
2018-04-16T03:26:11.235Z,10.93
2018-04-16T03:28:43.581Z,11.57
2018-04-16T03:31:16.213Z,12.07
2018-04-16T03:33:48.581Z,11.70
2018-04-16T03:36:21.935Z,11.10
2018-04-16T03:38:54.266Z,11.07
2018-04-16T03:41:27.393Z,11.87
2018-04-16T03:43:59.770Z,11.77
2018-04-16T03:46:32.154Z,11.93
2018-04-16T03:49:04.538Z,11.60
2018-04-16T03:51:36.869Z,12.80
2018-04-16T03:54:03.172Z,11.63
2018-04-16T03:56:30.146Z,10.93
2018-04-16T03:58:57.110Z,11.70
2018-04-16T04:01:23.297Z,11.73
2018-04-16T04:03:49.486Z,12.67
2018-04-16T04:06:16.548Z,11.37
2018-04-16T04:08:42.795Z,13.03
2018-04-16T04:11:08.995Z,12.33
2018-04-16T04:13:35.254Z,13.60
2018-04-16T04:16:01.509Z,13.30
2018-04-16T04:18:27.786Z,12.17
2018-04-16T04:20:54.008Z,13.23
2018-04-16T04:23:32.518Z,12.67
2018-04-16T04:26:11.200Z,13.73
2018-04-16T04:28:49.688Z,13.20
2018-04-16T04:31:15.860Z,13.00
2018-04-16T04:33:42.109Z,13.33
2018-04-16T04:36:08.306Z,14.40
2018-04-16T04:38:34.506Z,12.90
2018-04-16T04:41:00.715Z,12.77
2018-04-16T04:43:26.911Z,14.03
2018-04-16T04:45:53.880Z,13.23
2018-04-16T04:48:21.790Z,13.37
2018-04-16T04:50:47.976Z,12.30
2018-04-16T04:53:14.277Z,16.67
2018-04-16T04:55:40.507Z,16.47
2018-04-16T04:58:06.699Z,13.10
2018-04-16T05:00:33.676Z,13.83
2018-04-16T05:03:00.602Z,13.83
2018-04-16T05:05:26.811Z,14.07
2018-04-16T05:07:53.320Z,13.57
2018-04-16T05:10:19.537Z,13.13
2018-04-16T05:12:45.731Z,14.97
2018-04-16T05:15:11.961Z,13.57
2018-04-16T05:17:38.147Z,13.97
2018-04-16T05:20:04.343Z,12.77
2018-04-16T05:22:30.543Z,13.03
2018-04-16T05:24:57.537Z,13.67
2018-04-16T05:27:23.734Z,13.33
2018-04-16T05:29:51.435Z,14.67
2018-04-16T05:32:17.659Z,14.00
2018-04-16T05:34:44.637Z,13.60
2018-04-16T05:37:10.860Z,14.10
2018-04-16T05:39:37.097Z,14.40
2018-04-16T05:42:03.437Z,14.27
2018-04-16T05:44:29.718Z,14.73
2018-04-16T05:46:55.951Z,13.80
2018-04-16T05:49:22.233Z,14.23
2018-04-16T05:51:48.398Z,15.57
2018-04-16T05:54:15.352Z,14.33
2018-04-16T05:56:41.579Z,14.80
2018-04-16T05:59:07.823Z,13.23
2018-04-16T06:01:34.830Z,14.53
2018-04-16T06:04:01.051Z,14.70
2018-04-16T06:06:27.338Z,13.50
2018-04-16T06:08:53.606Z,14.63
2018-04-16T06:11:19.795Z,13.93
2018-04-16T06:13:46.013Z,13.63
2018-04-16T06:16:13.039Z,13.60
2018-04-16T06:18:39.263Z,13.63
2018-04-16T06:21:06.374Z,13.40
2018-04-16T06:23:32.605Z,13.57
2018-04-16T06:25:59.533Z,13.07
2018-04-16T06:28:25.782Z,15.13
2018-04-16T06:30:52.011Z,13.77
2018-04-16T06:33:18.220Z,13.93
2018-04-16T06:35:45.317Z,12.87
2018-04-16T06:38:11.639Z,12.67
2018-04-16T06:40:37.888Z,12.57
2018-04-16T06:43:04.327Z,12.80
2018-04-16T06:45:30.627Z,11.93
2018-04-16T06:47:56.866Z,13.20
2018-04-16T06:50:23.095Z,12.83
2018-04-16T06:52:49.316Z,12.23
2018-04-16T06:55:15.504Z,13.90
2018-04-16T06:57:41.747Z,12.00
2018-04-16T07:00:07.952Z,11.80
2018-04-16T07:02:34.251Z,11.83
2018-04-16T07:05:00.500Z,12.67
2018-04-16T07:07:26.831Z,11.93
2018-04-16T07:09:53.628Z,11.67
2018-04-16T07:12:19.960Z,11.80
2018-04-16T07:14:46.163Z,11.60
2018-04-16T07:17:13.187Z,13.03
2018-04-16T07:19:39.435Z,12.10
2018-04-16T07:22:05.624Z,13.13
2018-04-16T07:24:31.891Z,11.43
2018-04-16T07:26:58.083Z,11.30
2018-04-16T07:29:24.358Z,11.70
2018-04-16T07:31:50.573Z,11.20
2018-04-16T07:34:17.796Z,11.93
2018-04-16T07:36:44.808Z,11.67
2018-04-16T07:39:11.047Z,11.30
2018-04-16T07:41:38.046Z,11.33
2018-04-16T07:44:04.224Z,14.37
2018-04-16T07:46:30.412Z,12.93
2018-04-16T07:48:56.693Z,12.90
2018-04-16T07:51:22.887Z,11.83
2018-04-16T07:53:49.094Z,15.90
2018-04-16T07:56:16.102Z,13.00
2018-04-16T07:58:42.380Z,13.40
2018-04-16T08:01:08.590Z,11.70
2018-04-16T08:03:34.790Z,13.90
2018-04-16T08:06:01.760Z,10.27
2018-04-16T08:08:27.967Z,9.37
2018-04-16T08:10:54.927Z,9.30
2018-04-16T08:13:21.900Z,9.53
2018-04-16T08:15:48.111Z,9.60
2018-04-16T08:18:14.310Z,12.90
2018-04-16T08:20:40.632Z,9.40
2018-04-16T08:23:06.887Z,7.23
2018-04-16T08:25:33.127Z,7.93
2018-04-16T08:27:59.314Z,10.73
2018-04-16T08:30:25.498Z,6.37
2018-04-16T08:32:51.742Z,7.60
2018-04-16T08:35:17.936Z,9.17
2018-04-16T08:37:44.144Z,9.13
2018-04-16T08:40:10.450Z,9.40
2018-04-16T08:42:36.791Z,8.87
2018-04-16T08:45:03.008Z,9.10
2018-04-16T08:47:29.269Z,7.53
2018-04-16T08:49:55.599Z,9.80
2018-04-16T08:52:21.837Z,9.30
2018-04-16T08:54:48.112Z,8.47
2018-04-16T08:57:14.350Z,7.77
2018-04-16T08:59:40.617Z,8.03
2018-04-16T09:02:06.866Z,9.17
2018-04-16T09:04:33.119Z,8.40
2018-04-16T09:07:00.074Z,8.87
2018-04-16T09:09:27.048Z,8.73
2018-04-16T09:11:53.286Z,11.87
2018-04-16T09:14:20.227Z,7.30
2018-04-16T09:16:46.445Z,9.90
2018-04-16T09:19:12.687Z,8.57
2018-04-16T09:21:40.448Z,8.33
2018-04-16T09:24:06.717Z,8.27
2018-04-16T09:26:33.687Z,7.60
2018-04-16T09:29:00.917Z,10.97
2018-04-16T09:31:27.123Z,8.80
2018-04-16T09:33:53.338Z,10.90
2018-04-16T09:36:20.307Z,11.23
2018-04-16T09:38:47.248Z,10.47
2018-04-16T09:41:13.495Z,7.67
2018-04-16T09:43:40.495Z,6.03
2018-04-16T09:46:06.729Z,7.57
2018-04-16T09:48:33.949Z,6.10
2018-04-16T09:51:00.895Z,6.50
2018-04-16T09:53:27.252Z,8.73
2018-04-16T09:55:54.994Z,7.47
2018-04-16T09:58:21.182Z,6.80
2018-04-16T10:00:50.317Z,7.20
2018-04-16T10:03:17.295Z,5.73
2018-04-16T10:05:44.335Z,5.97
2018-04-16T10:08:11.282Z,7.67
2018-04-16T10:10:37.495Z,14.30
2018-04-16T10:13:03.808Z,6.70
2018-04-16T10:15:30.290Z,6.53
2018-04-16T10:17:56.578Z,4.73
2018-04-16T10:20:22.719Z,6.47
2018-04-16T10:22:49.682Z,6.20
2018-04-16T10:25:15.909Z,5.67
2018-04-16T10:27:42.261Z,5.20
2018-04-16T10:30:08.688Z,6.20
2018-04-16T10:32:35.627Z,5.60
2018-04-16T10:35:01.956Z,6.30
2018-04-16T10:37:28.197Z,6.60
2018-04-16T10:39:54.477Z,6.77
2018-04-16T10:42:20.750Z,5.63
2018-04-16T10:44:46.944Z,4.50
2018-04-16T10:47:14.017Z,4.47
2018-04-16T10:49:40.277Z,5.80
2018-04-16T10:52:13.622Z,6.27
2018-04-16T10:54:39.853Z,5.20
2018-04-16T10:57:06.118Z,4.63
2018-04-16T10:59:32.594Z,4.33
2018-04-16T11:01:59.521Z,4.47
2018-04-16T11:04:25.751Z,6.87
2018-04-16T11:06:51.958Z,5.93
2018-04-16T11:09:18.235Z,8.03
2018-04-16T11:11:44.536Z,7.00
2018-04-16T11:14:10.859Z,8.67
2018-04-16T11:16:37.096Z,5.20
2018-04-16T11:19:04.054Z,6.33
2018-04-16T11:21:31.111Z,5.97
2018-04-16T11:23:57.322Z,9.50
2018-04-16T11:26:23.632Z,5.30
2018-04-16T11:28:49.803Z,5.47
2018-04-16T11:31:15.963Z,5.00
2018-04-16T11:33:42.185Z,10.93
2018-04-16T11:36:08.401Z,6.27
2018-04-16T11:38:34.629Z,5.87
2018-04-16T11:41:00.840Z,6.40
2018-04-16T11:43:27.160Z,8.70
2018-04-16T11:45:54.201Z,6.80
2018-04-16T11:48:20.355Z,7.07
2018-04-16T11:50:47.337Z,6.63
2018-04-16T11:53:13.782Z,5.10
2018-04-16T11:55:40.927Z,6.57
2018-04-16T11:58:07.144Z,8.00
2018-04-16T12:00:34.180Z,6.57
2018-04-16T12:03:00.432Z,9.97
2018-04-16T12:05:26.644Z,7.37
2018-04-16T12:07:52.848Z,8.60
2018-04-16T12:10:19.244Z,6.60
2018-04-16T12:12:45.517Z,6.90
2018-04-16T12:15:12.491Z,4.03
2018-04-16T12:17:38.815Z,8.33
2018-04-16T12:20:05.082Z,5.27
2018-04-16T12:22:31.283Z,6.00
2018-04-16T12:24:57.499Z,5.63
2018-04-16T12:27:23.888Z,6.97
2018-04-16T12:29:50.083Z,7.67
2018-04-16T12:32:16.270Z,10.20
2018-04-16T12:34:42.602Z,8.57
2018-04-16T12:37:09.799Z,6.97
2018-04-16T12:39:40.122Z,5.47
2018-04-16T12:42:06.577Z,6.90
2018-04-16T12:44:32.796Z,5.67
2018-04-16T12:46:59.750Z,7.33
2018-04-16T12:49:25.991Z,5.43
2018-04-16T12:51:52.213Z,4.80
2018-04-16T12:54:19.168Z,6.83
2018-04-16T12:56:46.147Z,6.20
2018-04-16T12:59:12.421Z,6.03
2018-04-16T13:01:38.642Z,7.00
2018-04-16T13:04:04.875Z,7.47
2018-04-16T13:06:31.091Z,8.93
2018-04-16T13:08:58.092Z,6.40
2018-04-16T13:11:25.822Z,5.80
2018-04-16T13:13:52.066Z,7.27
2018-04-16T13:16:18.329Z,9.10
2018-04-16T13:18:44.718Z,6.03
2018-04-16T13:21:11.029Z,9.13
2018-04-16T13:23:37.333Z,8.17
2018-04-16T13:26:03.641Z,6.60
2018-04-16T13:28:29.839Z,5.27
2018-04-16T13:30:56.787Z,6.83
2018-04-16T13:33:22.985Z,4.30
2018-04-16T13:35:49.259Z,8.47
2018-04-16T13:38:15.602Z,7.90
2018-04-16T13:40:42.657Z,9.10
2018-04-16T13:43:10.348Z,7.53
2018-04-16T13:45:37.280Z,6.27
2018-04-16T13:48:03.556Z,5.53
2018-04-16T13:50:30.508Z,7.97
2018-04-16T13:52:57.439Z,6.50
2018-04-16T13:55:23.671Z,8.87
2018-04-16T13:57:49.904Z,6.57
2018-04-16T14:00:16.146Z,6.77
2018-04-16T14:02:42.395Z,8.57
2018-04-16T14:05:09.367Z,7.03
2018-04-16T14:07:36.330Z,5.70
2018-04-16T14:10:02.575Z,7.83
2018-04-16T14:12:29.525Z,7.27
2018-04-16T14:14:55.740Z,5.77
2018-04-16T14:17:21.979Z,6.67
2018-04-16T14:19:48.166Z,7.50
2018-04-16T14:22:15.164Z,5.30
2018-04-16T14:24:41.457Z,7.50
2018-04-16T14:27:07.706Z,6.53
2018-04-16T14:29:33.913Z,8.90
2018-04-16T14:32:00.172Z,6.07
2018-04-16T14:34:28.120Z,5.23
2018-04-16T14:36:54.329Z,5.30
2018-04-16T14:39:20.567Z,5.70
2018-04-16T14:41:46.853Z,9.90
2018-04-16T14:44:13.123Z,8.40
2018-04-16T14:46:39.390Z,8.80
2018-04-16T14:49:05.603Z,7.80
2018-04-16T14:51:32.535Z,8.83
2018-04-16T14:53:59.499Z,8.27
2018-04-16T14:56:25.871Z,8.53
2018-04-16T14:58:53.073Z,7.17
2018-04-16T15:01:19.358Z,9.13
2018-04-16T15:03:45.628Z,9.70
2018-04-16T15:06:11.903Z,8.23
2018-04-16T15:08:38.155Z,9.10
2018-04-16T15:11:04.400Z,8.30
2018-04-16T15:13:37.531Z,7.97
2018-04-16T15:16:04.078Z,10.17
2018-04-16T15:18:31.033Z,7.33
2018-04-16T15:20:58.116Z,9.00
2018-04-16T15:23:24.822Z,10.13
2018-04-16T15:25:51.595Z,7.67
2018-04-16T15:28:17.776Z,5.63
2018-04-16T15:30:44.479Z,10.30
2018-04-16T15:33:10.734Z,5.57
2018-04-16T15:35:37.999Z,5.37
2018-04-16T15:38:05.426Z,6.60
2018-04-16T15:40:32.615Z,5.47
2018-04-16T15:42:58.850Z,7.97
2018-04-16T15:45:25.061Z,6.60
2018-04-16T15:47:51.284Z,12.40
2018-04-16T15:50:17.545Z,8.43
2018-04-16T15:52:43.837Z,8.47
2018-04-16T15:55:10.931Z,8.53
2018-04-16T15:57:37.937Z,9.07
2018-04-16T16:00:04.148Z,6.53
2018-04-16T16:02:30.347Z,7.03
2018-04-16T16:04:56.612Z,7.23
2018-04-16T16:07:22.866Z,8.93
2018-04-16T16:09:49.056Z,8.67
2018-04-16T16:12:15.423Z,5.80
2018-04-16T16:14:41.619Z,8.27
2018-04-16T16:17:07.830Z,10.67
2018-04-16T16:19:34.041Z,6.60
2018-04-16T16:22:00.212Z,8.37
2018-04-16T16:24:27.120Z,10.10
2018-04-16T16:26:53.309Z,10.37
2018-04-16T16:29:20.200Z,10.90
2018-04-16T16:31:46.355Z,6.60
2018-04-16T16:34:12.773Z,8.63
2018-04-16T16:36:38.930Z,10.07
2018-04-16T16:39:05.204Z,10.63
2018-04-16T16:41:31.423Z,8.17
2018-04-16T16:43:57.593Z,7.87
2018-04-16T16:46:24.571Z,7.47
2018-04-16T16:48:50.922Z,10.80
2018-04-16T16:51:17.831Z,10.17
2018-04-16T16:53:44.104Z,9.60
2018-04-16T16:56:10.307Z,7.43
2018-04-16T16:58:36.480Z,8.97
2018-04-16T17:01:02.681Z,9.83
2018-04-16T17:03:28.859Z,9.00
2018-04-16T17:05:55.851Z,8.13
2018-04-16T17:08:22.055Z,6.90
2018-04-16T17:10:48.288Z,11.00
2018-04-16T17:13:15.243Z,8.77
2018-04-16T17:15:42.371Z,12.60
2018-04-16T17:18:08.575Z,9.63
2018-04-16T17:20:34.767Z,11.90
2018-04-16T17:23:00.935Z,6.53
2018-04-16T17:25:27.160Z,9.10
2018-04-16T17:27:54.196Z,9.93
2018-04-16T17:30:20.342Z,13.53
2018-04-16T17:32:46.559Z,13.30
2018-04-16T17:35:12.833Z,10.97
2018-04-16T17:37:39.783Z,12.57
2018-04-16T17:40:05.996Z,11.60
2018-04-16T17:42:32.187Z,10.03
2018-04-16T17:44:58.392Z,12.43
2018-04-16T17:47:24.819Z,10.23
2018-04-16T17:49:51.035Z,10.53
2018-04-16T17:52:17.978Z,9.10
2018-04-16T17:54:44.958Z,7.17
2018-04-16T17:57:12.010Z,10.67
2018-04-16T17:59:38.197Z,8.00
2018-04-16T18:02:04.383Z,9.50
2018-04-16T18:04:31.303Z,9.43
2018-04-16T18:06:58.262Z,10.87
2018-04-16T18:09:24.465Z,7.50
2018-04-16T18:11:50.634Z,9.97
2018-04-16T18:14:16.881Z,7.40
2018-04-16T18:16:43.157Z,6.00
2018-04-16T18:19:09.318Z,7.47
2018-04-16T18:21:35.515Z,8.13
2018-04-16T18:24:01.776Z,9.27
2018-04-16T18:26:28.750Z,6.70
2018-04-16T18:28:54.920Z,8.50
2018-04-16T18:31:21.119Z,10.17
2018-04-16T18:33:48.013Z,7.00
2018-04-16T18:36:14.227Z,10.43
2018-04-16T18:38:41.133Z,9.67
2018-04-16T18:41:08.154Z,6.77
2018-04-16T18:43:34.327Z,10.33
2018-04-16T18:46:00.589Z,10.83
2018-04-16T18:48:27.659Z,9.87
2018-04-16T18:50:53.914Z,8.50
2018-04-16T18:53:20.862Z,9.57
2018-04-16T18:55:47.096Z,11.00
2018-04-16T18:58:13.299Z,7.50
2018-04-16T19:00:39.494Z,10.77
2018-04-16T19:03:05.711Z,8.07
2018-04-16T19:05:32.669Z,9.33
2018-04-16T19:07:58.914Z,6.67
2018-04-16T19:10:25.858Z,9.30
2018-04-16T19:12:53.607Z,8.53
2018-04-16T19:15:19.835Z,9.57
2018-04-16T19:17:52.058Z,9.80
2018-04-16T19:20:24.351Z,16.57
2018-04-16T19:22:51.284Z,6.80
2018-04-16T19:25:17.446Z,8.57
2018-04-16T19:27:50.601Z,6.93
2018-04-16T19:30:16.832Z,10.27
2018-04-16T19:32:49.229Z,7.30
2018-04-16T19:35:15.798Z,9.57
2018-04-16T19:37:42.031Z,9.00
2018-04-16T19:40:08.511Z,13.57
2018-04-16T19:42:40.667Z,8.50
2018-04-16T19:45:06.927Z,8.27
2018-04-16T19:47:33.099Z,10.17
2018-04-16T19:50:04.229Z,10.20
2018-04-16T19:52:30.430Z,11.20
2018-04-16T19:54:56.792Z,10.90
2018-04-16T19:57:29.103Z,9.00
2018-04-16T19:59:55.321Z,13.17
2018-04-16T20:02:28.471Z,10.60
2018-04-16T20:04:55.480Z,5.43
2018-04-16T20:07:21.682Z,10.33
2018-04-16T20:09:49.406Z,8.87
2018-04-16T20:12:16.318Z,9.33
2018-04-16T20:14:42.899Z,7.30
2018-04-16T20:17:09.939Z,6.37
2018-04-16T20:19:36.111Z,10.70
2018-04-16T20:22:03.119Z,5.47
2018-04-16T20:24:29.368Z,13.10
2018-04-16T20:26:55.543Z,10.40
2018-04-16T20:29:21.720Z,10.63
2018-04-16T20:31:47.900Z,8.40
2018-04-16T20:34:14.126Z,11.00
2018-04-16T20:36:40.419Z,15.60
2018-04-16T20:39:06.733Z,10.43
2018-04-16T20:41:33.000Z,12.53
2018-04-16T20:43:59.195Z,9.47
2018-04-16T20:46:26.863Z,6.77
2018-04-16T20:48:53.130Z,9.27
2018-04-16T20:51:19.291Z,5.93
2018-04-16T20:56:19.613Z,7.33
2018-04-16T20:58:45.883Z,8.73
2018-04-16T21:01:12.986Z,9.23
2018-04-16T21:06:13.331Z,7.07
2018-04-16T21:08:41.757Z,7.63
2018-04-16T21:11:07.986Z,7.50
2018-04-16T21:13:34.175Z,8.40
2018-04-16T21:16:01.299Z,9.77
2018-04-16T21:18:27.482Z,6.23
2018-04-16T21:20:53.709Z,9.40
2018-04-16T21:23:19.982Z,7.30
2018-04-16T21:25:46.972Z,8.07
2018-04-16T21:28:13.297Z,10.43
2018-04-16T21:30:39.443Z,9.23
2018-04-16T21:33:05.590Z,6.77
2018-04-16T21:35:31.886Z,10.23
2018-04-16T21:37:58.053Z,9.30
2018-04-16T21:40:24.960Z,8.13
2018-04-16T21:42:52.157Z,8.73
2018-04-16T21:45:18.362Z,7.77
2018-04-16T21:47:44.665Z,9.87
2018-04-16T21:50:12.021Z,5.97
2018-04-16T21:52:38.241Z,7.13
2018-04-16T21:55:05.343Z,7.87
2018-04-16T21:57:31.511Z,7.80
2018-04-16T21:59:57.708Z,6.47
2018-04-16T22:02:23.913Z,12.33
2018-04-16T22:04:50.059Z,9.30
2018-04-16T22:07:16.217Z,8.50
2018-04-16T22:09:42.401Z,6.93
2018-04-16T22:12:08.563Z,6.30
2018-04-16T22:14:34.711Z,10.67
2018-04-16T22:17:00.993Z,7.30
2018-04-16T22:19:28.691Z,10.90
2018-04-16T22:21:54.850Z,11.97
2018-04-16T22:24:21.013Z,9.40
2018-04-16T22:26:47.322Z,5.93
2018-04-16T22:29:13.521Z,7.03
2018-04-16T22:31:39.701Z,8.77
2018-04-16T22:34:05.911Z,8.70
2018-04-16T22:36:32.078Z,7.37
2018-04-16T22:38:58.238Z,8.80
2018-04-16T22:41:25.192Z,8.30
2018-04-16T22:43:51.362Z,5.37
2018-04-16T22:46:17.527Z,4.83
2018-04-16T22:48:43.748Z,6.63
2018-04-16T22:51:09.983Z,6.63
2018-04-16T22:53:36.134Z,7.23
2018-04-16T22:56:02.346Z,5.67
2018-04-16T22:58:28.486Z,6.40
2018-04-16T23:00:54.643Z,7.70
2018-04-16T23:03:20.869Z,9.23
2018-04-16T23:05:47.134Z,5.23
2018-04-16T23:08:20.383Z,6.53
2018-04-16T23:10:46.596Z,6.77
2018-04-16T23:13:13.620Z,4.90
2018-04-16T23:15:39.882Z,6.40
2018-04-16T23:18:06.366Z,7.53
2018-04-16T23:20:32.660Z,8.83
2018-04-16T23:22:58.865Z,6.50
2018-04-16T23:25:25.295Z,7.73
2018-04-16T23:27:52.242Z,7.00
2018-04-16T23:30:19.911Z,11.17
2018-04-16T23:32:46.272Z,6.77
2018-04-16T23:35:13.369Z,6.67
2018-04-16T23:37:39.599Z,9.60
2018-04-16T23:40:13.565Z,7.60
2018-04-16T23:42:39.745Z,9.87
2018-04-16T23:45:06.692Z,6.10
2018-04-16T23:47:32.899Z,4.67
2018-04-16T23:49:59.096Z,5.80
2018-04-16T23:52:25.409Z,7.80
2018-04-16T23:54:51.628Z,11.63
2018-04-16T23:57:17.843Z,6.00
2018-04-16T23:59:44.088Z,5.67
